sensor_id;sensor_type;location;lat;lon;timestamp;P1;durP1;ratioP1;P2;durP2;ratioP2
21334;SDS011;69435;52.670;13.544;2023-08-31T00:02:39;5.77;;;4.97;;
21334;SDS011;69435;52.670;13.544;2023-08-31T00:05:26;6.97;;;5.30;;
21334;SDS011;69435;52.670;13.544;2023-08-31T00:08:13;5.57;;;5.07;;
21334;SDS011;69435;52.670;13.544;2023-08-31T00:10:59;5.53;;;5.13;;
21334;SDS011;69435;52.670;13.544;2023-08-31T00:13:46;5.53;;;5.13;;
21334;SDS011;69435;52.670;13.544;2023-08-31T00:16:32;5.23;;;4.93;;
21334;SDS011;69435;52.670;13.544;2023-08-31T00:19:18;5.87;;;5.30;;
21334;SDS011;69435;52.670;13.544;2023-08-31T00:22:04;5.17;;;4.77;;
21334;SDS011;69435;52.670;13.544;2023-08-31T00:24:50;4.63;;;4.33;;
21334;SDS011;69435;52.670;13.544;2023-08-31T00:27:38;4.70;;;4.40;;
21334;SDS011;69435;52.670;13.544;2023-08-31T00:30:26;4.57;;;4.27;;
21334;SDS011;69435;52.670;13.544;2023-08-31T00:33:14;4.77;;;4.47;;
21334;SDS011;69435;52.670;13.544;2023-08-31T00:36:01;5.20;;;4.87;;
21334;SDS011;69435;52.670;13.544;2023-08-31T00:38:48;5.40;;;4.90;;
21334;SDS011;69435;52.670;13.544;2023-08-31T00:41:34;4.80;;;4.50;;
21334;SDS011;69435;52.670;13.544;2023-08-31T00:44:20;4.77;;;4.47;;
21334;SDS011;69435;52.670;13.544;2023-08-31T00:47:07;5.47;;;4.97;;
21334;SDS011;69435;52.670;13.544;2023-08-31T00:49:53;5.10;;;4.70;;
21334;SDS011;69435;52.670;13.544;2023-08-31T00:52:40;4.83;;;4.53;;
21334;SDS011;69435;52.670;13.544;2023-08-31T00:55:29;4.70;;;4.40;;
21334;SDS011;69435;52.670;13.544;2023-08-31T00:58:17;5.50;;;5.10;;
21334;SDS011;69435;52.670;13.544;2023-08-31T01:10:40;5.10;;;4.70;;
21334;SDS011;69435;52.670;13.544;2023-08-31T01:13:44;4.90;;;4.50;;
21334;SDS011;69435;52.670;13.544;2023-08-31T01:16:38;5.67;;;5.13;;
21334;SDS011;69435;52.670;13.544;2023-08-31T01:19:39;4.43;;;4.13;;
21334;SDS011;69435;52.670;13.544;2023-08-31T01:25:36;5.73;;;4.80;;
21334;SDS011;69435;52.670;13.544;2023-08-31T01:28:22;5.50;;;5.00;;
21334;SDS011;69435;52.670;13.544;2023-08-31T01:31:08;5.63;;;5.00;;
21334;SDS011;69435;52.670;13.544;2023-08-31T01:33:55;5.43;;;5.03;;
21334;SDS011;69435;52.670;13.544;2023-08-31T01:36:42;5.97;;;5.47;;
21334;SDS011;69435;52.670;13.544;2023-08-31T01:39:41;6.13;;;5.53;;
21334;SDS011;69435;52.670;13.544;2023-08-31T01:42:41;5.83;;;5.43;;
21334;SDS011;69435;52.670;13.544;2023-08-31T01:45:29;6.80;;;6.37;;
21334;SDS011;69435;52.670;13.544;2023-08-31T01:48:16;7.87;;;7.27;;
21334;SDS011;69435;52.670;13.544;2023-08-31T01:51:03;6.70;;;6.20;;
21334;SDS011;69435;52.670;13.544;2023-08-31T01:53:49;7.00;;;6.50;;
21334;SDS011;69435;52.670;13.544;2023-08-31T01:56:35;7.17;;;6.47;;
21334;SDS011;69435;52.670;13.544;2023-08-31T01:59:21;7.23;;;6.63;;
21334;SDS011;69435;52.670;13.544;2023-08-31T02:02:07;8.10;;;6.53;;
21334;SDS011;69435;52.670;13.544;2023-08-31T02:04:53;7.03;;;6.53;;
21334;SDS011;69435;52.670;13.544;2023-08-31T02:07:39;5.90;;;5.50;;
21334;SDS011;69435;52.670;13.544;2023-08-31T02:10:25;7.00;;;6.43;;
21334;SDS011;69435;52.670;13.544;2023-08-31T02:13:13;6.33;;;5.87;;
21334;SDS011;69435;52.670;13.544;2023-08-31T02:16:01;6.60;;;6.20;;
21334;SDS011;69435;52.670;13.544;2023-08-31T02:18:47;5.77;;;5.37;;
21334;SDS011;69435;52.670;13.544;2023-08-31T02:21:33;6.90;;;6.27;;
21334;SDS011;69435;52.670;13.544;2023-08-31T02:24:19;7.00;;;6.40;;
21334;SDS011;69435;52.670;13.544;2023-08-31T02:27:05;6.23;;;5.73;;
21334;SDS011;69435;52.670;13.544;2023-08-31T02:29:51;6.00;;;5.60;;
21334;SDS011;69435;52.670;13.544;2023-08-31T02:32:37;6.90;;;6.30;;
21334;SDS011;69435;52.670;13.544;2023-08-31T02:35:23;6.00;;;5.53;;
21334;SDS011;69435;52.670;13.544;2023-08-31T02:38:09;6.40;;;5.60;;
21334;SDS011;69435;52.670;13.544;2023-08-31T02:40:55;7.20;;;5.97;;
21334;SDS011;69435;52.670;13.544;2023-08-31T02:43:41;8.80;;;6.03;;
21334;SDS011;69435;52.670;13.544;2023-08-31T02:46:28;5.83;;;5.33;;
21334;SDS011;69435;52.670;13.544;2023-08-31T02:49:14;5.40;;;5.00;;
21334;SDS011;69435;52.670;13.544;2023-08-31T02:51:59;5.40;;;5.00;;
21334;SDS011;69435;52.670;13.544;2023-08-31T02:54:45;4.90;;;4.60;;
21334;SDS011;69435;52.670;13.544;2023-08-31T02:57:31;5.70;;;4.90;;
21334;SDS011;69435;52.670;13.544;2023-08-31T03:00:17;5.00;;;4.50;;
21334;SDS011;69435;52.670;13.544;2023-08-31T03:03:06;5.10;;;4.70;;
21334;SDS011;69435;52.670;13.544;2023-08-31T03:05:54;5.37;;;4.97;;
21334;SDS011;69435;52.670;13.544;2023-08-31T03:08:41;4.73;;;4.23;;
21334;SDS011;69435;52.670;13.544;2023-08-31T03:11:27;5.30;;;4.90;;
21334;SDS011;69435;52.670;13.544;2023-08-31T03:14:13;4.77;;;4.40;;
21334;SDS011;69435;52.670;13.544;2023-08-31T03:16:59;4.90;;;4.50;;
21334;SDS011;69435;52.670;13.544;2023-08-31T03:19:45;4.77;;;4.33;;
21334;SDS011;69435;52.670;13.544;2023-08-31T03:22:31;4.70;;;4.40;;
21334;SDS011;69435;52.670;13.544;2023-08-31T03:25:17;4.90;;;4.50;;
21334;SDS011;69435;52.670;13.544;2023-08-31T03:28:03;4.27;;;3.93;;
21334;SDS011;69435;52.670;13.544;2023-08-31T03:30:56;7.13;;;4.30;;
21334;SDS011;69435;52.670;13.544;2023-08-31T03:33:42;4.40;;;4.00;;
21334;SDS011;69435;52.670;13.544;2023-08-31T03:36:28;4.37;;;3.87;;
21334;SDS011;69435;52.670;13.544;2023-08-31T03:39:14;4.67;;;4.27;;
21334;SDS011;69435;52.670;13.544;2023-08-31T03:42:01;4.50;;;4.10;;
21334;SDS011;69435;52.670;13.544;2023-08-31T03:44:47;4.23;;;3.93;;
21334;SDS011;69435;52.670;13.544;2023-08-31T03:47:33;3.87;;;3.57;;
21334;SDS011;69435;52.670;13.544;2023-08-31T03:50:19;3.77;;;3.47;;
21334;SDS011;69435;52.670;13.544;2023-08-31T03:53:06;4.37;;;4.00;;
21334;SDS011;69435;52.670;13.544;2023-08-31T03:55:52;4.07;;;3.77;;
21334;SDS011;69435;52.670;13.544;2023-08-31T03:58:38;3.97;;;3.43;;
21334;SDS011;69435;52.670;13.544;2023-08-31T04:01:24;3.63;;;3.33;;
21334;SDS011;69435;52.670;13.544;2023-08-31T04:04:09;4.00;;;3.70;;
21334;SDS011;69435;52.670;13.544;2023-08-31T04:06:55;3.70;;;3.40;;
21334;SDS011;69435;52.670;13.544;2023-08-31T04:09:41;3.90;;;3.60;;
21334;SDS011;69435;52.670;13.544;2023-08-31T04:12:28;3.60;;;3.37;;
21334;SDS011;69435;52.670;13.544;2023-08-31T04:15:15;3.70;;;3.40;;
21334;SDS011;69435;52.670;13.544;2023-08-31T04:18:02;3.77;;;3.47;;
21334;SDS011;69435;52.670;13.544;2023-08-31T04:20:49;3.43;;;3.23;;
21334;SDS011;69435;52.670;13.544;2023-08-31T04:23:37;3.60;;;3.40;;
21334;SDS011;69435;52.670;13.544;2023-08-31T04:26:23;3.90;;;3.60;;
21334;SDS011;69435;52.670;13.544;2023-08-31T04:29:09;3.73;;;3.53;;
21334;SDS011;69435;52.670;13.544;2023-08-31T04:31:55;3.57;;;3.27;;
21334;SDS011;69435;52.670;13.544;2023-08-31T04:34:41;4.30;;;3.90;;
21334;SDS011;69435;52.670;13.544;2023-08-31T04:37:27;4.57;;;4.17;;
21334;SDS011;69435;52.670;13.544;2023-08-31T04:40:13;4.90;;;4.50;;
21334;SDS011;69435;52.670;13.544;2023-08-31T04:42:59;4.40;;;4.03;;
21334;SDS011;69435;52.670;13.544;2023-08-31T04:45:45;4.77;;;4.37;;
21334;SDS011;69435;52.670;13.544;2023-08-31T04:48:31;4.93;;;4.53;;
21334;SDS011;69435;52.670;13.544;2023-08-31T04:51:34;5.27;;;4.80;;
21334;SDS011;69435;52.670;13.544;2023-08-31T04:54:24;5.63;;;5.03;;
21334;SDS011;69435;52.670;13.544;2023-08-31T04:57:10;6.10;;;5.60;;
21334;SDS011;69435;52.670;13.544;2023-08-31T04:59:56;5.10;;;4.70;;
21334;SDS011;69435;52.670;13.544;2023-08-31T05:02:42;6.80;;;5.70;;
21334;SDS011;69435;52.670;13.544;2023-08-31T05:05:28;6.00;;;5.50;;
21334;SDS011;69435;52.670;13.544;2023-08-31T05:08:14;6.63;;;6.03;;
21334;SDS011;69435;52.670;13.544;2023-08-31T05:11:00;7.87;;;6.40;;
21334;SDS011;69435;52.670;13.544;2023-08-31T05:13:47;10.27;;;6.90;;
21334;SDS011;69435;52.670;13.544;2023-08-31T05:16:33;7.70;;;6.90;;
21334;SDS011;69435;52.670;13.544;2023-08-31T05:19:19;7.70;;;6.90;;
21334;SDS011;69435;52.670;13.544;2023-08-31T05:22:05;8.40;;;7.70;;
21334;SDS011;69435;52.670;13.544;2023-08-31T05:24:51;8.67;;;7.40;;
21334;SDS011;69435;52.670;13.544;2023-08-31T05:27:37;9.43;;;7.80;;
21334;SDS011;69435;52.670;13.544;2023-08-31T05:30:23;9.17;;;8.27;;
21334;SDS011;69435;52.670;13.544;2023-08-31T05:33:09;9.83;;;8.93;;
21334;SDS011;69435;52.670;13.544;2023-08-31T05:35:55;10.27;;;9.27;;
21334;SDS011;69435;52.670;13.544;2023-08-31T05:38:41;9.43;;;8.33;;
21334;SDS011;69435;52.670;13.544;2023-08-31T05:41:27;9.60;;;8.70;;
21334;SDS011;69435;52.670;13.544;2023-08-31T05:44:13;9.57;;;8.67;;
21334;SDS011;69435;52.670;13.544;2023-08-31T05:46:59;9.63;;;8.73;;
21334;SDS011;69435;52.670;13.544;2023-08-31T05:49:45;9.93;;;9.03;;
21334;SDS011;69435;52.670;13.544;2023-08-31T05:52:31;10.43;;;9.33;;
21334;SDS011;69435;52.670;13.544;2023-08-31T05:55:17;10.23;;;9.23;;
21334;SDS011;69435;52.670;13.544;2023-08-31T05:58:03;11.00;;;9.23;;
21334;SDS011;69435;52.670;13.544;2023-08-31T06:00:50;13.80;;;9.10;;
21334;SDS011;69435;52.670;13.544;2023-08-31T06:03:36;9.67;;;8.73;;
21334;SDS011;69435;52.670;13.544;2023-08-31T06:06:22;13.73;;;9.17;;
21334;SDS011;69435;52.670;13.544;2023-08-31T06:09:08;9.97;;;9.00;;
21334;SDS011;69435;52.670;13.544;2023-08-31T06:11:54;14.93;;;9.40;;
21334;SDS011;69435;52.670;13.544;2023-08-31T06:14:40;13.33;;;9.70;;
21334;SDS011;69435;52.670;13.544;2023-08-31T06:17:26;12.13;;;9.73;;
21334;SDS011;69435;52.670;13.544;2023-08-31T06:20:12;11.10;;;9.37;;
21334;SDS011;69435;52.670;13.544;2023-08-31T06:23:01;13.47;;;9.37;;
21334;SDS011;69435;52.670;13.544;2023-08-31T06:25:48;10.60;;;9.47;;
21334;SDS011;69435;52.670;13.544;2023-08-31T06:28:34;11.37;;;10.33;;
21334;SDS011;69435;52.670;13.544;2023-08-31T06:31:20;11.43;;;10.30;;
21334;SDS011;69435;52.670;13.544;2023-08-31T06:34:06;13.50;;;10.13;;
21334;SDS011;69435;52.670;13.544;2023-08-31T06:36:52;9.87;;;8.87;;
21334;SDS011;69435;52.670;13.544;2023-08-31T06:39:38;9.27;;;8.43;;
21334;SDS011;69435;52.670;13.544;2023-08-31T06:42:24;8.73;;;7.83;;
21334;SDS011;69435;52.670;13.544;2023-08-31T06:48:15;7.93;;;7.20;;
21334;SDS011;69435;52.670;13.544;2023-08-31T06:51:01;8.27;;;7.57;;
21334;SDS011;69435;52.670;13.544;2023-08-31T06:53:49;9.20;;;8.30;;
21334;SDS011;69435;52.670;13.544;2023-08-31T06:56:35;8.53;;;7.73;;
21334;SDS011;69435;52.670;13.544;2023-08-31T06:59:21;8.97;;;6.83;;
21334;SDS011;69435;52.670;13.544;2023-08-31T07:02:07;8.17;;;7.47;;
21334;SDS011;69435;52.670;13.544;2023-08-31T07:04:53;7.50;;;6.90;;
21334;SDS011;69435;52.670;13.544;2023-08-31T07:07:39;9.33;;;7.30;;
21334;SDS011;69435;52.670;13.544;2023-08-31T07:10:25;7.37;;;6.77;;
21334;SDS011;69435;52.670;13.544;2023-08-31T07:13:11;10.00;;;6.33;;
21334;SDS011;69435;52.670;13.544;2023-08-31T07:15:57;8.20;;;6.57;;
21334;SDS011;69435;52.670;13.544;2023-08-31T07:18:43;6.93;;;6.27;;
21334;SDS011;69435;52.670;13.544;2023-08-31T07:21:29;6.90;;;6.30;;
21334;SDS011;69435;52.670;13.544;2023-08-31T07:24:15;6.27;;;5.73;;
21334;SDS011;69435;52.670;13.544;2023-08-31T07:27:04;6.37;;;5.87;;
21334;SDS011;69435;52.670;13.544;2023-08-31T07:29:50;6.13;;;5.53;;
21334;SDS011;69435;52.670;13.544;2023-08-31T07:32:39;6.57;;;6.17;;
21334;SDS011;69435;52.670;13.544;2023-08-31T07:35:25;6.10;;;5.50;;
21334;SDS011;69435;52.670;13.544;2023-08-31T07:38:11;9.23;;;5.23;;
21334;SDS011;69435;52.670;13.544;2023-08-31T07:40:57;7.00;;;6.27;;
21334;SDS011;69435;52.670;13.544;2023-08-31T07:43:44;5.63;;;5.23;;
21334;SDS011;69435;52.670;13.544;2023-08-31T07:46:30;5.47;;;4.97;;
21334;SDS011;69435;52.670;13.544;2023-08-31T07:49:16;5.27;;;4.77;;
21334;SDS011;69435;52.670;13.544;2023-08-31T07:52:02;5.27;;;4.50;;
21334;SDS011;69435;52.670;13.544;2023-08-31T07:54:48;4.80;;;3.93;;
21334;SDS011;69435;52.670;13.544;2023-08-31T07:57:34;5.77;;;3.50;;
21334;SDS011;69435;52.670;13.544;2023-08-31T08:00:21;3.57;;;2.83;;
21334;SDS011;69435;52.670;13.544;2023-08-31T08:03:07;3.67;;;3.27;;
21334;SDS011;69435;52.670;13.544;2023-08-31T08:05:53;3.20;;;2.80;;
21334;SDS011;69435;52.670;13.544;2023-08-31T08:08:41;4.60;;;2.90;;
21334;SDS011;69435;52.670;13.544;2023-08-31T08:11:27;4.57;;;3.13;;
21334;SDS011;69435;52.670;13.544;2023-08-31T08:14:13;3.73;;;3.53;;
21334;SDS011;69435;52.670;13.544;2023-08-31T08:17:00;4.13;;;3.80;;
21334;SDS011;69435;52.670;13.544;2023-08-31T08:19:46;5.03;;;2.60;;
21334;SDS011;69435;52.670;13.544;2023-08-31T08:22:32;3.60;;;3.30;;
21334;SDS011;69435;52.670;13.544;2023-08-31T08:25:19;3.40;;;3.10;;
21334;SDS011;69435;52.670;13.544;2023-08-31T08:28:05;3.63;;;3.37;;
21334;SDS011;69435;52.670;13.544;2023-08-31T08:30:51;3.60;;;2.80;;
21334;SDS011;69435;52.670;13.544;2023-08-31T08:33:37;4.20;;;2.80;;
21334;SDS011;69435;52.670;13.544;2023-08-31T08:36:23;3.43;;;2.40;;
21334;SDS011;69435;52.670;13.544;2023-08-31T08:39:09;3.27;;;2.33;;
21334;SDS011;69435;52.670;13.544;2023-08-31T08:41:56;4.97;;;2.20;;
21334;SDS011;69435;52.670;13.544;2023-08-31T08:44:44;2.13;;;1.93;;
21334;SDS011;69435;52.670;13.544;2023-08-31T08:47:31;2.53;;;2.17;;
21334;SDS011;69435;52.670;13.544;2023-08-31T08:50:18;3.50;;;3.10;;
21334;SDS011;69435;52.670;13.544;2023-08-31T08:53:06;7.43;;;2.00;;
21334;SDS011;69435;52.670;13.544;2023-08-31T08:55:52;6.03;;;2.00;;
21334;SDS011;69435;52.670;13.544;2023-08-31T08:58:38;2.30;;;1.70;;
21334;SDS011;69435;52.670;13.544;2023-08-31T09:01:24;1.80;;;1.70;;
21334;SDS011;69435;52.670;13.544;2023-08-31T09:04:10;2.20;;;1.53;;
21334;SDS011;69435;52.670;13.544;2023-08-31T09:06:57;1.70;;;1.60;;
21334;SDS011;69435;52.670;13.544;2023-08-31T09:09:49;1.77;;;1.53;;
21334;SDS011;69435;52.670;13.544;2023-08-31T09:12:37;9.65;;;3.20;;
21334;SDS011;69435;52.670;13.544;2023-08-31T09:15:24;1.63;;;1.50;;
21334;SDS011;69435;52.670;13.544;2023-08-31T09:18:15;1.88;;;1.45;;
21334;SDS011;69435;52.670;13.544;2023-08-31T09:21:19;1.25;;;1.15;;
21334;SDS011;69435;52.670;13.544;2023-08-31T09:24:06;1.73;;;1.15;;
21334;SDS011;69435;52.670;13.544;2023-08-31T09:26:57;2.93;;;1.57;;
21334;SDS011;69435;52.670;13.544;2023-08-31T09:29:46;2.87;;;1.93;;
21334;SDS011;69435;52.670;13.544;2023-08-31T09:32:32;3.63;;;1.33;;
21334;SDS011;69435;52.670;13.544;2023-08-31T09:35:18;1.80;;;1.30;;
21334;SDS011;69435;52.670;13.544;2023-08-31T09:38:06;1.53;;;1.27;;
21334;SDS011;69435;52.670;13.544;2023-08-31T09:41:03;5.03;;;1.87;;
21334;SDS011;69435;52.670;13.544;2023-08-31T09:43:53;1.38;;;1.10;;
21334;SDS011;69435;52.670;13.544;2023-08-31T09:46:39;2.25;;;1.20;;
21334;SDS011;69435;52.670;13.544;2023-08-31T09:49:25;1.65;;;1.45;;
21334;SDS011;69435;52.670;13.544;2023-08-31T09:52:12;1.52;;;1.42;;
21334;SDS011;69435;52.670;13.544;2023-08-31T09:55:00;1.45;;;1.35;;
21334;SDS011;69435;52.670;13.544;2023-08-31T09:57:49;2.30;;;1.40;;
21334;SDS011;69435;52.670;13.544;2023-08-31T10:00:38;4.22;;;1.60;;
21334;SDS011;69435;52.670;13.544;2023-08-31T10:03:24;1.60;;;1.50;;
21334;SDS011;69435;52.670;13.544;2023-08-31T10:06:12;1.13;;;0.98;;
21334;SDS011;69435;52.670;13.544;2023-08-31T10:08:59;1.33;;;1.00;;
21334;SDS011;69435;52.670;13.544;2023-08-31T10:11:46;0.98;;;0.98;;
21334;SDS011;69435;52.670;13.544;2023-08-31T10:14:33;1.45;;;1.08;;
21334;SDS011;69435;52.670;13.544;2023-08-31T10:17:20;2.50;;;0.80;;
21334;SDS011;69435;52.670;13.544;2023-08-31T10:20:08;1.45;;;1.30;;
21334;SDS011;69435;52.670;13.544;2023-08-31T10:22:57;3.55;;;1.08;;
21334;SDS011;69435;52.670;13.544;2023-08-31T10:28:41;1.00;;;0.93;;
21334;SDS011;69435;52.670;13.544;2023-08-31T10:31:28;2.10;;;1.35;;
21334;SDS011;69435;52.670;13.544;2023-08-31T10:34:17;1.33;;;0.70;;
21334;SDS011;69435;52.670;13.544;2023-08-31T10:37:22;0.82;;;0.82;;
21334;SDS011;69435;52.670;13.544;2023-08-31T10:40:12;1.15;;;1.00;;
21334;SDS011;69435;52.670;13.544;2023-08-31T10:43:14;2.00;;;1.10;;
21334;SDS011;69435;52.670;13.544;2023-08-31T10:46:01;1.00;;;1.00;;
21334;SDS011;69435;52.670;13.544;2023-08-31T10:48:51;1.70;;;1.23;;
21334;SDS011;69435;52.670;13.544;2023-08-31T10:51:48;1.90;;;1.10;;
21334;SDS011;69435;52.670;13.544;2023-08-31T10:54:40;2.35;;;1.40;;
21334;SDS011;69435;52.670;13.544;2023-08-31T10:57:29;3.03;;;1.20;;
21334;SDS011;69435;52.670;13.544;2023-08-31T11:00:33;2.78;;;1.20;;
21334;SDS011;69435;52.670;13.544;2023-08-31T11:03:56;1.90;;;1.10;;
21334;SDS011;69435;52.670;13.544;2023-08-31T11:06:43;1.20;;;1.10;;
21334;SDS011;69435;52.670;13.544;2023-08-31T11:09:29;1.67;;;1.10;;
21334;SDS011;69435;52.670;13.544;2023-08-31T11:12:16;1.33;;;0.97;;
21334;SDS011;69435;52.670;13.544;2023-08-31T11:15:02;1.20;;;1.20;;
21334;SDS011;69435;52.670;13.544;2023-08-31T11:17:50;1.40;;;1.30;;
21334;SDS011;69435;52.670;13.544;2023-08-31T11:20:37;5.63;;;1.37;;
21334;SDS011;69435;52.670;13.544;2023-08-31T11:23:23;2.07;;;1.50;;
21334;SDS011;69435;52.670;13.544;2023-08-31T11:26:10;2.87;;;1.27;;
21334;SDS011;69435;52.670;13.544;2023-08-31T11:28:56;1.40;;;1.30;;
21334;SDS011;69435;52.670;13.544;2023-08-31T11:31:42;3.50;;;2.10;;
21334;SDS011;69435;52.670;13.544;2023-08-31T11:34:29;1.50;;;1.40;;
21334;SDS011;69435;52.670;13.544;2023-08-31T11:37:15;4.10;;;1.50;;
21334;SDS011;69435;52.670;13.544;2023-08-31T11:40:01;3.53;;;1.50;;
21334;SDS011;69435;52.670;13.544;2023-08-31T11:42:50;2.60;;;1.60;;
21334;SDS011;69435;52.670;13.544;2023-08-31T11:45:37;1.57;;;1.27;;
21334;SDS011;69435;52.670;13.544;2023-08-31T11:48:24;1.70;;;1.43;;
21334;SDS011;69435;52.670;13.544;2023-08-31T11:51:11;3.50;;;1.57;;
21334;SDS011;69435;52.670;13.544;2023-08-31T11:53:58;2.83;;;1.73;;
21334;SDS011;69435;52.670;13.544;2023-08-31T11:56:45;1.37;;;1.27;;
21334;SDS011;69435;52.670;13.544;2023-08-31T11:59:34;1.93;;;1.43;;
21334;SDS011;69435;52.670;13.544;2023-08-31T12:02:22;1.53;;;1.43;;
21334;SDS011;69435;52.670;13.544;2023-08-31T12:05:08;1.70;;;1.60;;
21334;SDS011;69435;52.670;13.544;2023-08-31T12:07:55;3.07;;;2.30;;
21334;SDS011;69435;52.670;13.544;2023-08-31T12:10:42;2.17;;;1.60;;
21334;SDS011;69435;52.670;13.544;2023-08-31T12:13:28;1.77;;;1.67;;
21334;SDS011;69435;52.670;13.544;2023-08-31T12:16:16;2.03;;;1.53;;
21334;SDS011;69435;52.670;13.544;2023-08-31T12:19:03;4.67;;;1.43;;
21334;SDS011;69435;52.670;13.544;2023-08-31T12:21:51;1.30;;;1.30;;
21334;SDS011;69435;52.670;13.544;2023-08-31T12:24:41;2.03;;;1.60;;
21334;SDS011;69435;52.670;13.544;2023-08-31T12:27:27;1.80;;;1.70;;
21334;SDS011;69435;52.670;13.544;2023-08-31T12:30:13;2.33;;;1.30;;
21334;SDS011;69435;52.670;13.544;2023-08-31T12:32:59;1.97;;;1.50;;
21334;SDS011;69435;52.670;13.544;2023-08-31T12:35:45;2.53;;;1.90;;
21334;SDS011;69435;52.670;13.544;2023-08-31T12:38:32;1.73;;;1.63;;
21334;SDS011;69435;52.670;13.544;2023-08-31T12:41:18;1.70;;;1.60;;
21334;SDS011;69435;52.670;13.544;2023-08-31T12:44:06;2.97;;;2.17;;
21334;SDS011;69435;52.670;13.544;2023-08-31T12:46:53;2.50;;;2.30;;
21334;SDS011;69435;52.670;13.544;2023-08-31T12:49:39;2.07;;;1.87;;
21334;SDS011;69435;52.670;13.544;2023-08-31T12:52:25;1.80;;;1.70;;
21334;SDS011;69435;52.670;13.544;2023-08-31T12:55:12;3.07;;;1.73;;
21334;SDS011;69435;52.670;13.544;2023-08-31T12:57:59;4.03;;;1.60;;
21334;SDS011;69435;52.670;13.544;2023-08-31T13:00:45;1.70;;;1.60;;
21334;SDS011;69435;52.670;13.544;2023-08-31T13:03:33;1.60;;;1.50;;
21334;SDS011;69435;52.670;13.544;2023-08-31T13:06:19;2.00;;;1.53;;
21334;SDS011;69435;52.670;13.544;2023-08-31T13:09:06;1.97;;;1.50;;
21334;SDS011;69435;52.670;13.544;2023-08-31T13:11:54;1.83;;;1.73;;
21334;SDS011;69435;52.670;13.544;2023-08-31T13:14:40;1.97;;;1.83;;
21334;SDS011;69435;52.670;13.544;2023-08-31T13:17:26;1.73;;;1.63;;
21334;SDS011;69435;52.670;13.544;2023-08-31T13:20:13;1.80;;;1.70;;
21334;SDS011;69435;52.670;13.544;2023-08-31T13:22:59;2.10;;;2.00;;
21334;SDS011;69435;52.670;13.544;2023-08-31T13:25:45;2.37;;;1.83;;
21334;SDS011;69435;52.670;13.544;2023-08-31T13:28:31;1.70;;;1.60;;
21334;SDS011;69435;52.670;13.544;2023-08-31T13:31:17;1.80;;;1.70;;
21334;SDS011;69435;52.670;13.544;2023-08-31T13:34:03;1.77;;;1.67;;
21334;SDS011;69435;52.670;13.544;2023-08-31T13:36:51;1.93;;;1.83;;
21334;SDS011;69435;52.670;13.544;2023-08-31T13:39:37;6.03;;;3.10;;
21334;SDS011;69435;52.670;13.544;2023-08-31T13:42:25;7.40;;;2.00;;
21334;SDS011;69435;52.670;13.544;2023-08-31T13:45:11;11.07;;;2.80;;
21334;SDS011;69435;52.670;13.544;2023-08-31T13:48:00;3.10;;;1.90;;
21334;SDS011;69435;52.670;13.544;2023-08-31T13:50:46;2.73;;;1.90;;
21334;SDS011;69435;52.670;13.544;2023-08-31T13:53:32;2.60;;;2.40;;
21334;SDS011;69435;52.670;13.544;2023-08-31T13:56:19;2.53;;;2.43;;
21334;SDS011;69435;52.670;13.544;2023-08-31T13:59:05;2.83;;;2.63;;
21334;SDS011;69435;52.670;13.544;2023-08-31T14:01:51;2.93;;;2.57;;
21334;SDS011;69435;52.670;13.544;2023-08-31T14:04:37;4.07;;;2.63;;
21334;SDS011;69435;52.670;13.544;2023-08-31T14:07:23;2.80;;;2.60;;
21334;SDS011;69435;52.670;13.544;2023-08-31T14:10:09;2.53;;;2.43;;
21334;SDS011;69435;52.670;13.544;2023-08-31T14:12:55;3.23;;;3.03;;
21334;SDS011;69435;52.670;13.544;2023-08-31T14:15:45;3.00;;;2.80;;
21334;SDS011;69435;52.670;13.544;2023-08-31T14:18:31;2.40;;;2.30;;
21334;SDS011;69435;52.670;13.544;2023-08-31T14:21:17;3.73;;;2.77;;
21334;SDS011;69435;52.670;13.544;2023-08-31T14:24:03;4.20;;;2.27;;
21334;SDS011;69435;52.670;13.544;2023-08-31T14:26:50;2.40;;;2.20;;
21334;SDS011;69435;52.670;13.544;2023-08-31T14:29:37;2.23;;;2.03;;
21334;SDS011;69435;52.670;13.544;2023-08-31T14:32:23;2.47;;;1.90;;
21334;SDS011;69435;52.670;13.544;2023-08-31T14:35:09;2.07;;;1.87;;
21334;SDS011;69435;52.670;13.544;2023-08-31T14:37:56;2.07;;;1.97;;
21334;SDS011;69435;52.670;13.544;2023-08-31T14:40:43;1.87;;;1.77;;
21334;SDS011;69435;52.670;13.544;2023-08-31T14:43:29;4.13;;;2.20;;
21334;SDS011;69435;52.670;13.544;2023-08-31T14:46:15;4.03;;;2.20;;
21334;SDS011;69435;52.670;13.544;2023-08-31T14:49:01;2.37;;;1.90;;
21334;SDS011;69435;52.670;13.544;2023-08-31T14:51:47;3.70;;;1.70;;
21334;SDS011;69435;52.670;13.544;2023-08-31T14:54:33;4.10;;;1.70;;
21334;SDS011;69435;52.670;13.544;2023-08-31T14:57:20;2.70;;;1.80;;
21334;SDS011;69435;52.670;13.544;2023-08-31T15:00:06;1.80;;;1.70;;
21334;SDS011;69435;52.670;13.544;2023-08-31T15:02:54;2.57;;;2.17;;
21334;SDS011;69435;52.670;13.544;2023-08-31T15:05:40;1.93;;;1.80;;
21334;SDS011;69435;52.670;13.544;2023-08-31T15:08:35;4.07;;;2.63;;
21334;SDS011;69435;52.670;13.544;2023-08-31T15:11:30;2.20;;;2.10;;
21334;SDS011;69435;52.670;13.544;2023-08-31T15:14:16;2.17;;;1.97;;
21334;SDS011;69435;52.670;13.544;2023-08-31T15:17:02;5.37;;;2.40;;
21334;SDS011;69435;52.670;13.544;2023-08-31T15:19:50;3.03;;;2.30;;
21334;SDS011;69435;52.670;13.544;2023-08-31T15:22:39;4.93;;;3.10;;
21334;SDS011;69435;52.670;13.544;2023-08-31T15:25:25;3.17;;;2.23;;
21334;SDS011;69435;52.670;13.544;2023-08-31T15:28:11;2.47;;;2.33;;
21334;SDS011;69435;52.670;13.544;2023-08-31T15:30:57;2.00;;;1.83;;
21334;SDS011;69435;52.670;13.544;2023-08-31T15:33:43;3.33;;;2.37;;
21334;SDS011;69435;52.670;13.544;2023-08-31T15:36:29;3.37;;;1.90;;
21334;SDS011;69435;52.670;13.544;2023-08-31T15:39:15;4.40;;;1.80;;
21334;SDS011;69435;52.670;13.544;2023-08-31T15:42:01;2.23;;;2.00;;
21334;SDS011;69435;52.670;13.544;2023-08-31T15:44:48;2.07;;;1.97;;
21334;SDS011;69435;52.670;13.544;2023-08-31T15:47:34;3.03;;;1.80;;
21334;SDS011;69435;52.670;13.544;2023-08-31T15:50:20;6.60;;;2.00;;
21334;SDS011;69435;52.670;13.544;2023-08-31T15:53:06;1.70;;;1.60;;
21334;SDS011;69435;52.670;13.544;2023-08-31T15:55:52;6.03;;;1.83;;
21334;SDS011;69435;52.670;13.544;2023-08-31T15:58:38;1.70;;;1.60;;
21334;SDS011;69435;52.670;13.544;2023-08-31T16:01:24;4.77;;;2.00;;
21334;SDS011;69435;52.670;13.544;2023-08-31T16:04:11;1.90;;;1.80;;
21334;SDS011;69435;52.670;13.544;2023-08-31T16:06:57;2.70;;;1.70;;
21334;SDS011;69435;52.670;13.544;2023-08-31T16:09:43;1.90;;;1.80;;
21334;SDS011;69435;52.670;13.544;2023-08-31T16:12:29;1.60;;;1.50;;
21334;SDS011;69435;52.670;13.544;2023-08-31T16:15:16;2.27;;;1.47;;
21334;SDS011;69435;52.670;13.544;2023-08-31T16:18:02;2.07;;;1.93;;
21334;SDS011;69435;52.670;13.544;2023-08-31T16:20:49;1.50;;;1.40;;
21334;SDS011;69435;52.670;13.544;2023-08-31T16:23:34;1.67;;;1.57;;
21334;SDS011;69435;52.670;13.544;2023-08-31T16:26:20;1.50;;;1.40;;
21334;SDS011;69435;52.670;13.544;2023-08-31T16:29:06;1.77;;;1.67;;
21334;SDS011;69435;52.670;13.544;2023-08-31T16:31:52;1.43;;;1.37;;
21334;SDS011;69435;52.670;13.544;2023-08-31T16:34:39;1.67;;;1.57;;
21334;SDS011;69435;52.670;13.544;2023-08-31T16:37:25;1.60;;;1.50;;
21334;SDS011;69435;52.670;13.544;2023-08-31T16:40:12;1.50;;;1.40;;
21334;SDS011;69435;52.670;13.544;2023-08-31T16:42:58;1.90;;;1.80;;
21334;SDS011;69435;52.670;13.544;2023-08-31T16:45:44;1.87;;;1.67;;
21334;SDS011;69435;52.670;13.544;2023-08-31T16:48:30;2.00;;;1.90;;
21334;SDS011;69435;52.670;13.544;2023-08-31T16:51:16;1.80;;;1.70;;